sensor_id;sensor_type;location;lat;lon;timestamp;temperature;humidity
3944;DHT22;1986;52.546;13.428;2024-02-28T00:01:25;3.90;99.90
3944;DHT22;1986;52.546;13.428;2024-02-28T00:03:54;3.80;99.90
3944;DHT22;1986;52.546;13.428;2024-02-28T00:06:22;3.70;99.90
3944;DHT22;1986;52.546;13.428;2024-02-28T00:08:49;3.90;99.90
3944;DHT22;1986;52.546;13.428;2024-02-28T00:11:17;4.00;99.90
3944;DHT22;1986;52.546;13.428;2024-02-28T00:13:44;4.10;99.90
3944;DHT22;1986;52.546;13.428;2024-02-28T00:16:11;4.10;99.90
3944;DHT22;1986;52.546;13.428;2024-02-28T00:18:39;4.10;99.90
3944;DHT22;1986;52.546;13.428;2024-02-28T00:21:16;4.10;99.90
3944;DHT22;1986;52.546;13.428;2024-02-28T00:23:44;4.10;99.90
3944;DHT22;1986;52.546;13.428;2024-02-28T00:26:12;4.10;99.90
3944;DHT22;1986;52.546;13.428;2024-02-28T00:28:43;4.10;99.90
3944;DHT22;1986;52.546;13.428;2024-02-28T00:31:10;4.10;99.90
3944;DHT22;1986;52.546;13.428;2024-02-28T00:33:37;4.10;99.90
3944;DHT22;1986;52.546;13.428;2024-02-28T00:36:27;4.10;99.90
3944;DHT22;1986;52.546;13.428;2024-02-28T00:49:32;4.10;99.90
3944;DHT22;1986;52.546;13.428;2024-02-28T00:52:00;4.10;99.90
3944;DHT22;1986;52.546;13.428;2024-02-28T00:54:28;4.10;99.90
3944;DHT22;1986;52.546;13.428;2024-02-28T00:56:55;4.00;99.90
3944;DHT22;1986;52.546;13.428;2024-02-28T00:59:23;4.10;99.90
3944;DHT22;1986;52.546;13.428;2024-02-28T01:01:53;4.10;99.90
3944;DHT22;1986;52.546;13.428;2024-02-28T01:04:20;4.10;99.90
3944;DHT22;1986;52.546;13.428;2024-02-28T01:06:47;4.10;99.90
3944;DHT22;1986;52.546;13.428;2024-02-28T01:09:16;4.10;99.90
3944;DHT22;1986;52.546;13.428;2024-02-28T01:11:43;3.90;99.90
3944;DHT22;1986;52.546;13.428;2024-02-28T01:14:11;4.00;99.90
3944;DHT22;1986;52.546;13.428;2024-02-28T01:16:53;4.10;99.90
3944;DHT22;1986;52.546;13.428;2024-02-28T01:19:20;4.10;99.90
3944;DHT22;1986;52.546;13.428;2024-02-28T01:21:47;4.10;99.90
3944;DHT22;1986;52.546;13.428;2024-02-28T01:24:13;4.10;99.90
3944;DHT22;1986;52.546;13.428;2024-02-28T01:26:43;4.10;99.90
3944;DHT22;1986;52.546;13.428;2024-02-28T01:29:11;4.00;99.90
3944;DHT22;1986;52.546;13.428;2024-02-28T01:31:38;4.10;99.90
3944;DHT22;1986;52.546;13.428;2024-02-28T01:34:04;4.10;99.90
3944;DHT22;1986;52.546;13.428;2024-02-28T01:36:32;4.10;99.90
3944;DHT22;1986;52.546;13.428;2024-02-28T01:38:58;4.10;99.90
3944;DHT22;1986;52.546;13.428;2024-02-28T01:41:25;4.10;99.90
3944;DHT22;1986;52.546;13.428;2024-02-28T01:43:54;4.10;99.90
3944;DHT22;1986;52.546;13.428;2024-02-28T01:46:23;4.10;99.90
3944;DHT22;1986;52.546;13.428;2024-02-28T01:48:51;4.10;99.90
3944;DHT22;1986;52.546;13.428;2024-02-28T01:51:18;4.10;99.90
3944;DHT22;1986;52.546;13.428;2024-02-28T01:53:46;4.10;99.90
3944;DHT22;1986;52.546;13.428;2024-02-28T01:56:15;4.00;99.90
3944;DHT22;1986;52.546;13.428;2024-02-28T01:58:45;3.70;99.90
3944;DHT22;1986;52.546;13.428;2024-02-28T02:01:23;3.60;99.90
3944;DHT22;1986;52.546;13.428;2024-02-28T02:03:53;3.60;99.90
3944;DHT22;1986;52.546;13.428;2024-02-28T02:06:21;3.70;99.90
3944;DHT22;1986;52.546;13.428;2024-02-28T02:08:49;3.80;99.90
3944;DHT22;1986;52.546;13.428;2024-02-28T02:11:17;3.90;99.90
3944;DHT22;1986;52.546;13.428;2024-02-28T02:13:49;3.90;99.90
3944;DHT22;1986;52.546;13.428;2024-02-28T02:16:20;4.00;99.90
3944;DHT22;1986;52.546;13.428;2024-02-28T02:18:53;4.00;99.90
3944;DHT22;1986;52.546;13.428;2024-02-28T02:21:24;4.00;99.90
3944;DHT22;1986;52.546;13.428;2024-02-28T02:23:55;4.10;99.90
3944;DHT22;1986;52.546;13.428;2024-02-28T02:26:22;4.10;99.90
3944;DHT22;1986;52.546;13.428;2024-02-28T02:28:49;4.10;99.90
3944;DHT22;1986;52.546;13.428;2024-02-28T02:31:18;4.00;99.90
3944;DHT22;1986;52.546;13.428;2024-02-28T02:33:45;4.00;99.90
3944;DHT22;1986;52.546;13.428;2024-02-28T02:36:12;4.00;99.90
3944;DHT22;1986;52.546;13.428;2024-02-28T02:38:38;4.00;99.90
3944;DHT22;1986;52.546;13.428;2024-02-28T02:41:10;3.90;99.90
3944;DHT22;1986;52.546;13.428;2024-02-28T02:43:36;3.80;99.90
3944;DHT22;1986;52.546;13.428;2024-02-28T02:46:04;3.90;99.90
3944;DHT22;1986;52.546;13.428;2024-02-28T02:48:31;3.80;99.90
3944;DHT22;1986;52.546;13.428;2024-02-28T02:50:58;3.90;99.90
3944;DHT22;1986;52.546;13.428;2024-02-28T02:53:27;3.80;99.90
3944;DHT22;1986;52.546;13.428;2024-02-28T02:55:54;3.70;99.90
3944;DHT22;1986;52.546;13.428;2024-02-28T02:58:22;3.70;99.90
3944;DHT22;1986;52.546;13.428;2024-02-28T03:00:50;3.70;99.90
3944;DHT22;1986;52.546;13.428;2024-02-28T03:03:19;3.80;99.90
3944;DHT22;1986;52.546;13.428;2024-02-28T03:05:46;3.80;99.90
3944;DHT22;1986;52.546;13.428;2024-02-28T03:08:13;3.80;99.90
3944;DHT22;1986;52.546;13.428;2024-02-28T03:10:41;3.80;99.90
3944;DHT22;1986;52.546;13.428;2024-02-28T03:13:08;3.80;99.90
3944;DHT22;1986;52.546;13.428;2024-02-28T03:15:37;3.80;99.90
3944;DHT22;1986;52.546;13.428;2024-02-28T03:18:04;3.70;99.90
3944;DHT22;1986;52.546;13.428;2024-02-28T03:20:31;3.70;99.90
3944;DHT22;1986;52.546;13.428;2024-02-28T03:22:58;3.70;99.90
3944;DHT22;1986;52.546;13.428;2024-02-28T03:25:26;3.70;99.90
3944;DHT22;1986;52.546;13.428;2024-02-28T03:27:54;3.70;99.90
3944;DHT22;1986;52.546;13.428;2024-02-28T03:30:20;3.70;99.90
3944;DHT22;1986;52.546;13.428;2024-02-28T03:32:49;3.70;99.90
3944;DHT22;1986;52.546;13.428;2024-02-28T03:35:16;3.70;99.90
3944;DHT22;1986;52.546;13.428;2024-02-28T03:37:45;3.70;99.90
3944;DHT22;1986;52.546;13.428;2024-02-28T03:40:14;3.70;99.90
3944;DHT22;1986;52.546;13.428;2024-02-28T03:42:41;3.60;99.90
3944;DHT22;1986;52.546;13.428;2024-02-28T03:45:08;3.60;99.90
3944;DHT22;1986;52.546;13.428;2024-02-28T03:47:37;3.60;99.90
3944;DHT22;1986;52.546;13.428;2024-02-28T03:50:11;3.50;99.90
3944;DHT22;1986;52.546;13.428;2024-02-28T03:52:38;3.50;99.90
3944;DHT22;1986;52.546;13.428;2024-02-28T03:55:06;3.60;99.90
3944;DHT22;1986;52.546;13.428;2024-02-28T03:57:33;3.60;99.90
3944;DHT22;1986;52.546;13.428;2024-02-28T04:00:03;3.60;99.90
3944;DHT22;1986;52.546;13.428;2024-02-28T04:02:31;3.60;99.90
3944;DHT22;1986;52.546;13.428;2024-02-28T04:04:59;3.60;99.90
3944;DHT22;1986;52.546;13.428;2024-02-28T04:07:27;3.70;99.90
3944;DHT22;1986;52.546;13.428;2024-02-28T04:09:54;3.70;99.90
3944;DHT22;1986;52.546;13.428;2024-02-28T04:12:21;3.60;99.90
3944;DHT22;1986;52.546;13.428;2024-02-28T04:14:51;3.60;99.90
3944;DHT22;1986;52.546;13.428;2024-02-28T04:17:18;3.60;99.90
3944;DHT22;1986;52.546;13.428;2024-02-28T04:19:45;3.70;99.90
3944;DHT22;1986;52.546;13.428;2024-02-28T04:22:11;3.70;99.90
3944;DHT22;1986;52.546;13.428;2024-02-28T04:24:43;3.70;99.90
3944;DHT22;1986;52.546;13.428;2024-02-28T04:27:10;3.70;99.90
3944;DHT22;1986;52.546;13.428;2024-02-28T04:29:37;3.70;99.90
3944;DHT22;1986;52.546;13.428;2024-02-28T04:32:05;3.70;99.90
3944;DHT22;1986;52.546;13.428;2024-02-28T04:34:32;3.70;99.90
3944;DHT22;1986;52.546;13.428;2024-02-28T04:36:59;3.60;99.90
3944;DHT22;1986;52.546;13.428;2024-02-28T04:39:26;3.60;99.90
3944;DHT22;1986;52.546;13.428;2024-02-28T04:41:54;3.60;99.90
3944;DHT22;1986;52.546;13.428;2024-02-28T04:44:21;3.60;99.90
3944;DHT22;1986;52.546;13.428;2024-02-28T04:46:52;3.50;99.90
3944;DHT22;1986;52.546;13.428;2024-02-28T04:49:19;3.50;99.90
3944;DHT22;1986;52.546;13.428;2024-02-28T04:51:46;3.50;99.90
3944;DHT22;1986;52.546;13.428;2024-02-28T04:54:13;3.50;99.90
3944;DHT22;1986;52.546;13.428;2024-02-28T04:56:40;3.50;99.90
3944;DHT22;1986;52.546;13.428;2024-02-28T04:59:11;3.60;99.90
3944;DHT22;1986;52.546;13.428;2024-02-28T05:01:38;3.50;99.90
3944;DHT22;1986;52.546;13.428;2024-02-28T05:04:08;3.60;99.90
3944;DHT22;1986;52.546;13.428;2024-02-28T05:06:35;3.60;99.90
3944;DHT22;1986;52.546;13.428;2024-02-28T05:09:10;3.50;99.90
3944;DHT22;1986;52.546;13.428;2024-02-28T05:11:38;3.50;99.90
3944;DHT22;1986;52.546;13.428;2024-02-28T05:14:04;3.50;99.90
3944;DHT22;1986;52.546;13.428;2024-02-28T05:16:33;3.50;99.90
3944;DHT22;1986;52.546;13.428;2024-02-28T05:19:00;3.60;99.90
3944;DHT22;1986;52.546;13.428;2024-02-28T05:21:27;3.60;99.90
3944;DHT22;1986;52.546;13.428;2024-02-28T05:23:54;3.60;99.90
3944;DHT22;1986;52.546;13.428;2024-02-28T05:26:21;3.70;99.90
3944;DHT22;1986;52.546;13.428;2024-02-28T05:28:51;3.70;99.90
3944;DHT22;1986;52.546;13.428;2024-02-28T05:31:25;3.60;99.90
3944;DHT22;1986;52.546;13.428;2024-02-28T05:33:56;3.50;99.90
3944;DHT22;1986;52.546;13.428;2024-02-28T05:36:26;3.50;99.90
3944;DHT22;1986;52.546;13.428;2024-02-28T05:38:54;3.50;99.90
3944;DHT22;1986;52.546;13.428;2024-02-28T05:41:22;3.60;99.90
3944;DHT22;1986;52.546;13.428;2024-02-28T05:43:49;3.60;99.90
3944;DHT22;1986;52.546;13.428;2024-02-28T05:46:35;3.60;99.90
3944;DHT22;1986;52.546;13.428;2024-02-28T05:49:04;3.60;99.90
3944;DHT22;1986;52.546;13.428;2024-02-28T05:51:31;3.60;99.90
3944;DHT22;1986;52.546;13.428;2024-02-28T05:53:58;3.60;99.90
3944;DHT22;1986;52.546;13.428;2024-02-28T05:56:26;3.70;99.90
3944;DHT22;1986;52.546;13.428;2024-02-28T05:58:53;3.70;99.90
3944;DHT22;1986;52.546;13.428;2024-02-28T06:01:20;3.70;99.90
3944;DHT22;1986;52.546;13.428;2024-02-28T06:03:47;3.70;99.90
3944;DHT22;1986;52.546;13.428;2024-02-28T06:06:20;3.80;99.90
3944;DHT22;1986;52.546;13.428;2024-02-28T06:08:48;3.80;99.90
3944;DHT22;1986;52.546;13.428;2024-02-28T06:11:16;3.80;99.90
3944;DHT22;1986;52.546;13.428;2024-02-28T06:13:43;3.80;99.90
3944;DHT22;1986;52.546;13.428;2024-02-28T06:16:14;3.80;99.90
3944;DHT22;1986;52.546;13.428;2024-02-28T06:18:42;3.80;99.90
3944;DHT22;1986;52.546;13.428;2024-02-28T06:21:09;3.80;99.90
3944;DHT22;1986;52.546;13.428;2024-02-28T06:23:38;3.80;99.90
3944;DHT22;1986;52.546;13.428;2024-02-28T06:26:08;3.70;99.90
3944;DHT22;1986;52.546;13.428;2024-02-28T06:28:42;3.70;99.90
3944;DHT22;1986;52.546;13.428;2024-02-28T06:31:13;3.80;99.90
3944;DHT22;1986;52.546;13.428;2024-02-28T06:33:43;3.70;99.90
3944;DHT22;1986;52.546;13.428;2024-02-28T06:36:11;3.80;99.90
3944;DHT22;1986;52.546;13.428;2024-02-28T06:38:43;3.80;99.90
3944;DHT22;1986;52.546;13.428;2024-02-28T06:41:11;3.80;99.90
3944;DHT22;1986;52.546;13.428;2024-02-28T06:43:39;3.90;99.90
3944;DHT22;1986;52.546;13.428;2024-02-28T06:46:05;3.90;99.90
3944;DHT22;1986;52.546;13.428;2024-02-28T06:48:33;3.90;99.90
3944;DHT22;1986;52.546;13.428;2024-02-28T06:51:03;3.90;99.90
3944;DHT22;1986;52.546;13.428;2024-02-28T06:53:30;3.70;99.90
3944;DHT22;1986;52.546;13.428;2024-02-28T06:56:02;3.70;99.90
3944;DHT22;1986;52.546;13.428;2024-02-28T06:58:29;3.70;99.90
3944;DHT22;1986;52.546;13.428;2024-02-28T07:00:56;3.70;99.90
3944;DHT22;1986;52.546;13.428;2024-02-28T07:03:23;3.60;99.90
3944;DHT22;1986;52.546;13.428;2024-02-28T07:05:51;3.60;99.90
3944;DHT22;1986;52.546;13.428;2024-02-28T07:08:19;3.60;99.90
3944;DHT22;1986;52.546;13.428;2024-02-28T07:10:48;3.60;99.90
3944;DHT22;1986;52.546;13.428;2024-02-28T07:13:20;3.50;99.90
3944;DHT22;1986;52.546;13.428;2024-02-28T07:15:47;3.60;99.90
3944;DHT22;1986;52.546;13.428;2024-02-28T07:18:15;3.60;99.90
3944;DHT22;1986;52.546;13.428;2024-02-28T07:20:44;3.60;99.90
3944;DHT22;1986;52.546;13.428;2024-02-28T07:23:13;3.50;99.90
3944;DHT22;1986;52.546;13.428;2024-02-28T07:25:40;3.50;99.90
3944;DHT22;1986;52.546;13.428;2024-02-28T07:28:10;3.50;99.90
3944;DHT22;1986;52.546;13.428;2024-02-28T07:30:41;3.50;99.90
3944;DHT22;1986;52.546;13.428;2024-02-28T07:33:10;3.40;99.90
3944;DHT22;1986;52.546;13.428;2024-02-28T07:35:48;3.40;99.90
3944;DHT22;1986;52.546;13.428;2024-02-28T07:38:17;3.30;99.90
3944;DHT22;1986;52.546;13.428;2024-02-28T07:40:52;3.40;99.90
3944;DHT22;1986;52.546;13.428;2024-02-28T07:43:19;3.40;99.90
3944;DHT22;1986;52.546;13.428;2024-02-28T07:45:51;3.40;99.90
3944;DHT22;1986;52.546;13.428;2024-02-28T07:48:18;3.40;99.90
3944;DHT22;1986;52.546;13.428;2024-02-28T07:50:45;3.40;99.90
3944;DHT22;1986;52.546;13.428;2024-02-28T07:53:26;3.40;99.90
3944;DHT22;1986;52.546;13.428;2024-02-28T07:55:55;3.30;99.90
3944;DHT22;1986;52.546;13.428;2024-02-28T07:58:23;3.30;99.90
3944;DHT22;1986;52.546;13.428;2024-02-28T08:00:53;3.30;99.90
3944;DHT22;1986;52.546;13.428;2024-02-28T08:03:25;3.30;99.90
3944;DHT22;1986;52.546;13.428;2024-02-28T08:05:54;3.40;99.90
3944;DHT22;1986;52.546;13.428;2024-02-28T08:08:22;3.30;99.90
3944;DHT22;1986;52.546;13.428;2024-02-28T08:10:50;3.20;99.90
3944;DHT22;1986;52.546;13.428;2024-02-28T08:13:21;3.30;99.90
3944;DHT22;1986;52.546;13.428;2024-02-28T08:15:48;3.40;99.90
3944;DHT22;1986;52.546;13.428;2024-02-28T08:18:25;3.40;99.90
3944;DHT22;1986;52.546;13.428;2024-02-28T08:20:53;3.50;99.90
3944;DHT22;1986;52.546;13.428;2024-02-28T08:23:25;3.40;99.90
3944;DHT22;1986;52.546;13.428;2024-02-28T08:25:54;3.40;99.90
3944;DHT22;1986;52.546;13.428;2024-02-28T08:28:28;3.40;99.90
3944;DHT22;1986;52.546;13.428;2024-02-28T08:30:58;3.40;99.90
3944;DHT22;1986;52.546;13.428;2024-02-28T08:33:27;3.40;99.90
3944;DHT22;1986;52.546;13.428;2024-02-28T08:35:54;3.40;99.90
3944;DHT22;1986;52.546;13.428;2024-02-28T08:38:21;3.40;99.90
3944;DHT22;1986;52.546;13.428;2024-02-28T08:40:51;3.50;99.90
3944;DHT22;1986;52.546;13.428;2024-02-28T08:43:18;3.40;99.90
3944;DHT22;1986;52.546;13.428;2024-02-28T08:45:48;3.50;99.90
3944;DHT22;1986;52.546;13.428;2024-02-28T08:48:17;3.60;99.90
3944;DHT22;1986;52.546;13.428;2024-02-28T08:50:50;3.40;99.90
3944;DHT22;1986;52.546;13.428;2024-02-28T08:53:20;3.30;99.90
3944;DHT22;1986;52.546;13.428;2024-02-28T08:55:48;3.40;99.90
3944;DHT22;1986;52.546;13.428;2024-02-28T08:58:17;3.30;99.90
3944;DHT22;1986;52.546;13.428;2024-02-28T09:00:44;3.40;99.90
3944;DHT22;1986;52.546;13.428;2024-02-28T09:03:13;3.30;99.90
3944;DHT22;1986;52.546;13.428;2024-02-28T09:05:40;3.10;99.90
3944;DHT22;1986;52.546;13.428;2024-02-28T09:08:08;3.00;99.90
3944;DHT22;1986;52.546;13.428;2024-02-28T09:10:35;3.10;99.90
3944;DHT22;1986;52.546;13.428;2024-02-28T09:13:02;3.10;99.90
3944;DHT22;1986;52.546;13.428;2024-02-28T09:15:32;3.10;99.90
3944;DHT22;1986;52.546;13.428;2024-02-28T09:18:00;3.20;99.90
3944;DHT22;1986;52.546;13.428;2024-02-28T09:20:27;3.20;99.90
3944;DHT22;1986;52.546;13.428;2024-02-28T09:22:54;3.20;99.90
3944;DHT22;1986;52.546;13.428;2024-02-28T09:25:24;3.20;99.90
3944;DHT22;1986;52.546;13.428;2024-02-28T09:27:51;3.10;99.90
3944;DHT22;1986;52.546;13.428;2024-02-28T09:30:18;3.00;99.90
3944;DHT22;1986;52.546;13.428;2024-02-28T09:32:46;3.10;99.90
3944;DHT22;1986;52.546;13.428;2024-02-28T09:35:15;3.10;99.90
3944;DHT22;1986;52.546;13.428;2024-02-28T09:37:48;3.10;99.90
3944;DHT22;1986;52.546;13.428;2024-02-28T09:40:18;3.20;99.90
3944;DHT22;1986;52.546;13.428;2024-02-28T09:42:52;3.20;99.90
3944;DHT22;1986;52.546;13.428;2024-02-28T09:45:21;3.20;99.90
3944;DHT22;1986;52.546;13.428;2024-02-28T09:47:49;3.20;99.90
3944;DHT22;1986;52.546;13.428;2024-02-28T09:50:20;3.20;99.90
3944;DHT22;1986;52.546;13.428;2024-02-28T09:52:52;3.30;99.90
3944;DHT22;1986;52.546;13.428;2024-02-28T09:55:31;3.40;99.90
3944;DHT22;1986;52.546;13.428;2024-02-28T09:58:03;3.40;99.90
3944;DHT22;1986;52.546;13.428;2024-02-28T10:00:30;3.40;99.90
3944;DHT22;1986;52.546;13.428;2024-02-28T10:02:58;3.30;99.90
3944;DHT22;1986;52.546;13.428;2024-02-28T10:05:26;3.40;99.90
3944;DHT22;1986;52.546;13.428;2024-02-28T10:07:55;3.30;99.90
3944;DHT22;1986;52.546;13.428;2024-02-28T10:10:22;3.20;99.90
3944;DHT22;1986;52.546;13.428;2024-02-28T10:12:52;3.20;99.90
3944;DHT22;1986;52.546;13.428;2024-02-28T10:15:20;3.20;99.90
3944;DHT22;1986;52.546;13.428;2024-02-28T10:17:48;3.20;99.90
3944;DHT22;1986;52.546;13.428;2024-02-28T10:20:18;3.30;99.90
3944;DHT22;1986;52.546;13.428;2024-02-28T10:22:45;3.30;99.90
3944;DHT22;1986;52.546;13.428;2024-02-28T10:25:12;3.40;99.90
3944;DHT22;1986;52.546;13.428;2024-02-28T10:27:43;3.40;99.90
3944;DHT22;1986;52.546;13.428;2024-02-28T10:30:11;3.30;99.90
3944;DHT22;1986;52.546;13.428;2024-02-28T10:32:50;3.40;99.90
3944;DHT22;1986;52.546;13.428;2024-02-28T10:35:17;3.50;99.90
3944;DHT22;1986;52.546;13.428;2024-02-28T10:37:45;3.50;99.90
3944;DHT22;1986;52.546;13.428;2024-02-28T10:40:17;3.50;99.90
3944;DHT22;1986;52.546;13.428;2024-02-28T10:42:52;3.40;99.90
3944;DHT22;1986;52.546;13.428;2024-02-28T10:45:31;3.40;99.90
3944;DHT22;1986;52.546;13.428;2024-02-28T10:48:00;3.40;99.90
3944;DHT22;1986;52.546;13.428;2024-02-28T10:50:27;3.40;99.90
3944;DHT22;1986;52.546;13.428;2024-02-28T10:52:55;3.60;99.90
3944;DHT22;1986;52.546;13.428;2024-02-28T10:55:33;3.50;99.90
3944;DHT22;1986;52.546;13.428;2024-02-28T10:58:14;3.60;99.90
3944;DHT22;1986;52.546;13.428;2024-02-28T11:01:00;3.70;99.90
3944;DHT22;1986;52.546;13.428;2024-02-28T11:03:32;3.70;99.90
3944;DHT22;1986;52.546;13.428;2024-02-28T11:05:59;3.70;99.90
3944;DHT22;1986;52.546;13.428;2024-02-28T11:08:29;3.70;99.90
3944;DHT22;1986;52.546;13.428;2024-02-28T11:11:03;3.80;99.90
3944;DHT22;1986;52.546;13.428;2024-02-28T11:13:30;3.70;99.90
3944;DHT22;1986;52.546;13.428;2024-02-28T11:16:07;3.70;99.90
3944;DHT22;1986;52.546;13.428;2024-02-28T11:18:47;3.70;99.90
3944;DHT22;1986;52.546;13.428;2024-02-28T11:21:18;3.60;99.90
3944;DHT22;1986;52.546;13.428;2024-02-28T11:23:46;3.50;99.90
3944;DHT22;1986;52.546;13.428;2024-02-28T11:26:14;3.50;99.90
3944;DHT22;1986;52.546;13.428;2024-02-28T11:28:42;3.70;99.90
3944;DHT22;1986;52.546;13.428;2024-02-28T11:31:09;3.60;99.90
3944;DHT22;1986;52.546;13.428;2024-02-28T11:33:40;3.70;99.90
3944;DHT22;1986;52.546;13.428;2024-02-28T11:36:11;3.70;99.90
3944;DHT22;1986;52.546;13.428;2024-02-28T11:38:39;3.80;99.90
3944;DHT22;1986;52.546;13.428;2024-02-28T11:41:10;3.80;99.90
3944;DHT22;1986;52.546;13.428;2024-02-28T11:43:37;3.80;99.90
3944;DHT22;1986;52.546;13.428;2024-02-28T11:46:09;3.80;99.90
3944;DHT22;1986;52.546;13.428;2024-02-28T11:48:39;4.00;99.90
3944;DHT22;1986;52.546;13.428;2024-02-28T11:51:09;4.10;99.90
3944;DHT22;1986;52.546;13.428;2024-02-28T11:53:36;4.20;99.90
3944;DHT22;1986;52.546;13.428;2024-02-28T11:56:03;4.20;99.90
3944;DHT22;1986;52.546;13.428;2024-02-28T11:58:30;4.20;99.90
3944;DHT22;1986;52.546;13.428;2024-02-28T12:00:59;4.10;99.90
3944;DHT22;1986;52.546;13.428;2024-02-28T12:03:27;4.00;99.90
3944;DHT22;1986;52.546;13.428;2024-02-28T12:05:57;4.20;99.90
3944;DHT22;1986;52.546;13.428;2024-02-28T12:08:27;4.30;99.90
3944;DHT22;1986;52.546;13.428;2024-02-28T12:11:07;4.20;99.90
3944;DHT22;1986;52.546;13.428;2024-02-28T12:13:38;4.10;99.90
3944;DHT22;1986;52.546;13.428;2024-02-28T12:16:08;4.10;99.90
3944;DHT22;1986;52.546;13.428;2024-02-28T12:18:41;4.00;99.90
3944;DHT22;1986;52.546;13.428;2024-02-28T12:21:12;4.00;99.90
3944;DHT22;1986;52.546;13.428;2024-02-28T12:23:41;3.90;99.90
3944;DHT22;1986;52.546;13.428;2024-02-28T12:26:08;3.80;99.90
3944;DHT22;1986;52.546;13.428;2024-02-28T12:28:40;3.90;99.90
3944;DHT22;1986;52.546;13.428;2024-02-28T12:31:10;3.90;99.90
3944;DHT22;1986;52.546;13.428;2024-02-28T12:33:39;4.10;99.90
3944;DHT22;1986;52.546;13.428;2024-02-28T12:36:06;4.00;99.90
3944;DHT22;1986;52.546;13.428;2024-02-28T12:38:36;4.10;99.90
3944;DHT22;1986;52.546;13.428;2024-02-28T12:41:03;4.20;99.90
3944;DHT22;1986;52.546;13.428;2024-02-28T12:43:30;4.10;99.90
3944;DHT22;1986;52.546;13.428;2024-02-28T12:45:58;4.10;99.90
3944;DHT22;1986;52.546;13.428;2024-02-28T12:48:26;4.20;99.90
3944;DHT22;1986;52.546;13.428;2024-02-28T12:50:58;4.20;99.90
3944;DHT22;1986;52.546;13.428;2024-02-28T12:53:26;4.10;99.90
3944;DHT22;1986;52.546;13.428;2024-02-28T12:55:55;4.00;99.90
3944;DHT22;1986;52.546;13.428;2024-02-28T12:58:32;4.00;99.90
3944;DHT22;1986;52.546;13.428;2024-02-28T13:01:01;4.30;99.90
3944;DHT22;1986;52.546;13.428;2024-02-28T13:03:28;4.40;99.90
3944;DHT22;1986;52.546;13.428;2024-02-28T13:05:56;4.50;99.90
3944;DHT22;1986;52.546;13.428;2024-02-28T13:08:23;4.40;99.90
3944;DHT22;1986;52.546;13.428;2024-02-28T13:10:51;4.40;99.90
3944;DHT22;1986;52.546;13.428;2024-02-28T13:13:29;4.50;99.90
3944;DHT22;1986;52.546;13.428;2024-02-28T13:15:59;4.60;99.90
3944;DHT22;1986;52.546;13.428;2024-02-28T13:18:26;4.60;99.90
3944;DHT22;1986;52.546;13.428;2024-02-28T13:20:58;4.70;99.90
3944;DHT22;1986;52.546;13.428;2024-02-28T13:23:25;4.90;99.90
3944;DHT22;1986;52.546;13.428;2024-02-28T13:25:55;4.90;99.90
3944;DHT22;1986;52.546;13.428;2024-02-28T13:28:28;4.90;99.90
3944;DHT22;1986;52.546;13.428;2024-02-28T13:31:06;4.70;99.90
3944;DHT22;1986;52.546;13.428;2024-02-28T13:33:46;4.70;99.90
3944;DHT22;1986;52.546;13.428;2024-02-28T13:36:16;4.60;99.90
3944;DHT22;1986;52.546;13.428;2024-02-28T13:38:44;4.70;99.90
3944;DHT22;1986;52.546;13.428;2024-02-28T13:41:13;4.30;99.90
3944;DHT22;1986;52.546;13.428;2024-02-28T13:43:45;4.90;99.90
3944;DHT22;1986;52.546;13.428;2024-02-28T13:46:17;4.60;99.90
3944;DHT22;1986;52.546;13.428;2024-02-28T13:48:48;4.70;99.90
3944;DHT22;1986;52.546;13.428;2024-02-28T13:51:28;4.80;99.90
3944;DHT22;1986;52.546;13.428;2024-02-28T13:54:04;4.80;99.90
3944;DHT22;1986;52.546;13.428;2024-02-28T13:56:35;5.00;99.90
3944;DHT22;1986;52.546;13.428;2024-02-28T13:59:05;5.20;99.90
3944;DHT22;1986;52.546;13.428;2024-02-28T14:01:33;5.20;95.20
3944;DHT22;1986;52.546;13.428;2024-02-28T14:04:20;5.00;90.10
3944;DHT22;1986;52.546;13.428;2024-02-28T14:06:56;4.80;84.50
3944;DHT22;1986;52.546;13.428;2024-02-28T14:10:02;4.80;88.30
3944;DHT22;1986;52.546;13.428;2024-02-28T14:12:36;4.70;91.30
3944;DHT22;1986;52.546;13.428;2024-02-28T14:15:09;4.60;94.50
3944;DHT22;1986;52.546;13.428;2024-02-28T14:17:37;4.60;95.90
3944;DHT22;1986;52.546;13.428;2024-02-28T14:20:05;4.50;97.10
3944;DHT22;1986;52.546;13.428;2024-02-28T14:22:35;4.50;99.80
3944;DHT22;1986;52.546;13.428;2024-02-28T14:25:08;4.60;99.90
3944;DHT22;1986;52.546;13.428;2024-02-28T14:27:45;4.70;99.90
3944;DHT22;1986;52.546;13.428;2024-02-28T14:30:16;4.80;99.90
3944;DHT22;1986;52.546;13.428;2024-02-28T14:32:44;4.90;98.60
3944;DHT22;1986;52.546;13.428;2024-02-28T14:35:13;4.70;95.20
3944;DHT22;1986;52.546;13.428;2024-02-28T14:37:40;4.70;94.30
3944;DHT22;1986;52.546;13.428;2024-02-28T14:40:11;4.80;94.50
3944;DHT22;1986;52.546;13.428;2024-02-28T14:42:46;4.90;94.40
3944;DHT22;1986;52.546;13.428;2024-02-28T14:45:15;5.00;93.30
3944;DHT22;1986;52.546;13.428;2024-02-28T14:47:43;5.00;90.50
3944;DHT22;1986;52.546;13.428;2024-02-28T14:50:10;5.00;88.10
3944;DHT22;1986;52.546;13.428;2024-02-28T14:52:40;5.00;85.30
3944;DHT22;1986;52.546;13.428;2024-02-28T14:55:10;4.90;77.70
3944;DHT22;1986;52.546;13.428;2024-02-28T14:57:37;4.80;73.10
3944;DHT22;1986;52.546;13.428;2024-02-28T15:00:07;4.80;74.00
3944;DHT22;1986;52.546;13.428;2024-02-28T15:02:36;4.80;75.30
3944;DHT22;1986;52.546;13.428;2024-02-28T15:05:05;4.70;76.10
3944;DHT22;1986;52.546;13.428;2024-02-28T15:07:32;4.60;74.50
3944;DHT22;1986;52.546;13.428;2024-02-28T15:10:00;4.60;74.90
3944;DHT22;1986;52.546;13.428;2024-02-28T15:12:31;4.60;73.30
3944;DHT22;1986;52.546;13.428;2024-02-28T15:14:59;4.70;74.80
3944;DHT22;1986;52.546;13.428;2024-02-28T15:17:26;4.80;78.20
3944;DHT22;1986;52.546;13.428;2024-02-28T15:19:54;4.80;76.30
3944;DHT22;1986;52.546;13.428;2024-02-28T15:22:21;4.80;74.90
3944;DHT22;1986;52.546;13.428;2024-02-28T15:24:48;4.60;71.90
3944;DHT22;1986;52.546;13.428;2024-02-28T15:27:15;4.60;73.70
3944;DHT22;1986;52.546;13.428;2024-02-28T15:29:42;4.70;76.10
3944;DHT22;1986;52.546;13.428;2024-02-28T15:32:09;4.80;73.10
3944;DHT22;1986;52.546;13.428;2024-02-28T15:34:38;4.70;67.80
3944;DHT22;1986;52.546;13.428;2024-02-28T15:37:06;4.70;64.70
3944;DHT22;1986;52.546;13.428;2024-02-28T15:39:34;4.60;62.10
3944;DHT22;1986;52.546;13.428;2024-02-28T15:42:01;4.70;63.70
3944;DHT22;1986;52.546;13.428;2024-02-28T15:44:28;4.80;66.40
3944;DHT22;1986;52.546;13.428;2024-02-28T15:46:55;4.80;66.70
3944;DHT22;1986;52.546;13.428;2024-02-28T15:49:22;4.80;63.70
3944;DHT22;1986;52.546;13.428;2024-02-28T15:51:49;4.80;61.20
3944;DHT22;1986;52.546;13.428;2024-02-28T15:54:19;4.90;60.20
3944;DHT22;1986;52.546;13.428;2024-02-28T15:56:48;4.80;56.70
3944;DHT22;1986;52.546;13.428;2024-02-28T15:59:15;4.80;55.30
3944;DHT22;1986;52.546;13.428;2024-02-28T16:01:42;4.70;54.20
3944;DHT22;1986;52.546;13.428;2024-02-28T16:04:09;4.70;55.90
3944;DHT22;1986;52.546;13.428;2024-02-28T16:06:36;4.80;59.10
3944;DHT22;1986;52.546;13.428;2024-02-28T16:09:02;4.70;58.30
3944;DHT22;1986;52.546;13.428;2024-02-28T16:11:32;4.70;56.00
3944;DHT22;1986;52.546;13.428;2024-02-28T16:13:59;4.70;54.90
3944;DHT22;1986;52.546;13.428;2024-02-28T16:16:26;4.70;52.90
3944;DHT22;1986;52.546;13.428;2024-02-28T16:18:53;4.70;52.20
3944;DHT22;1986;52.546;13.428;2024-02-28T16:21:20;4.70;50.70
3944;DHT22;1986;52.546;13.428;2024-02-28T16:23:48;4.70;49.00
3944;DHT22;1986;52.546;13.428;2024-02-28T16:26:15;4.70;47.70